Time;durP1;ratioP1;P1;durP2;ratioP2;P2;SDS_P1;SDS_P2;PMS_P1;PMS_P2;Temp;Humidity;BMP_temperature;BMP_pressure;BME280_temperature;BME280_humidity;BME280_pressure;Samples;Min_cycle;Max_cycle;Signal;HPM_P1;HPM_P2
2023/07/12 00:01:44;;;;;;;1.23;1.13;;;;;;;;;;5055720;28;20021;-81
2023/07/12 00:04:10;;;;;;;2.50;1.40;;;;;;;;;;5049313;28;20027;-82
2023/07/12 00:06:37;;;;;;;2.10;1.42;;;;;;;;;;5061197;28;20037;-81
2023/07/12 00:09:04;;;;;;;1.40;1.23;;;;;;;;;;5046140;28;20040;-81
2023/07/12 00:11:30;;;;;;;2.05;1.30;;;;;;;;;;5046514;28;20032;-81
2023/07/12 00:13:56;;;;;;;1.40;1.25;;;;;;;;;;5052304;28;20073;-81
2023/07/12 00:16:30;;;;;;;1.65;1.30;;;;;;;;;;5058653;28;20447;-81
2023/07/12 00:18:56;;;;;;;2.17;1.40;;;;;;;;;;5050929;28;20788;-82
2023/07/12 00:21:24;;;;;;;1.30;1.20;;;;;;;;;;5048314;28;20526;-81
2023/07/12 00:23:52;;;;;;;1.98;1.50;;;;;;;;;;5046671;28;20029;-81
2023/07/12 00:26:20;;;;;;;1.33;1.17;;;;;;;;;;5046950;28;20029;-81
2023/07/12 00:28:46;;;;;;;1.70;1.48;;;;;;;;;;5047997;28;20037;-81
2023/07/12 00:31:12;;;;;;;1.20;1.10;;;;;;;;;;5046729;28;20423;-82
2023/07/12 00:33:38;;;;;;;2.47;1.80;;;;;;;;;;5051282;28;20028;-81
2023/07/12 00:36:05;;;;;;;2.90;2.03;;;;;;;;;;5051942;28;20041;-81
2023/07/12 00:38:33;;;;;;;1.80;1.65;;;;;;;;;;5051590;28;20032;-81
2023/07/12 00:41:16;;;;;;;1.48;1.30;;;;;;;;;;5058629;28;20025;-81
2023/07/12 00:43:45;;;;;;;3.05;1.40;;;;;;;;;;5053432;28;20035;-81
2023/07/12 00:46:11;;;;;;;1.88;1.30;;;;;;;;;;5051777;28;20130;-81
2023/07/12 00:48:36;;;;;;;1.83;1.15;;;;;;;;;;5063209;28;20520;-81
2023/07/12 00:51:25;;;;;;;1.55;1.45;;;;;;;;;;5051340;28;20384;-82
2023/07/12 00:53:51;;;;;;;1.58;1.35;;;;;;;;;;5051361;28;20174;-81
2023/07/12 00:56:17;;;;;;;1.30;1.20;;;;;;;;;;5055759;28;20181;-81
2023/07/12 00:58:44;;;;;;;1.30;1.15;;;;;;;;;;5056595;28;20025;-82
2023/07/12 01:01:11;;;;;;;1.63;1.40;;;;;;;;;;5050430;28;20082;-81
2023/07/12 01:03:38;;;;;;;1.90;1.23;;;;;;;;;;5056931;28;20615;-81
2023/07/12 01:06:06;;;;;;;2.58;1.33;;;;;;;;;;5043064;28;20591;-82
2023/07/12 01:08:32;;;;;;;2.05;1.45;;;;;;;;;;5043960;28;20037;-81
2023/07/12 01:11:01;;;;;;;2.17;1.73;;;;;;;;;;5055153;28;20030;-81
2023/07/12 01:13:28;;;;;;;2.45;1.63;;;;;;;;;;5052646;28;20471;-81
2023/07/12 01:15:53;;;;;;;1.50;1.20;;;;;;;;;;5046964;28;20036;-82
2023/07/12 01:18:20;;;;;;;1.83;1.60;;;;;;;;;;5062115;28;20025;-81
2023/07/12 01:20:46;;;;;;;1.52;1.20;;;;;;;;;;5055617;28;20638;-81
2023/07/12 01:23:13;;;;;;;1.63;1.52;;;;;;;;;;5050772;28;20030;-81
2023/07/12 01:25:41;;;;;;;1.60;1.30;;;;;;;;;;5057441;28;20098;-80
2023/07/12 01:28:07;;;;;;;2.28;1.67;;;;;;;;;;5047255;28;20408;-82
2023/07/12 01:30:33;;;;;;;1.58;1.38;;;;;;;;;;5041456;28;20029;-81
2023/07/12 01:32:59;;;;;;;1.40;1.27;;;;;;;;;;5067379;28;20552;-81
2023/07/12 01:35:25;;;;;;;1.75;1.30;;;;;;;;;;5053839;28;20477;-80
2023/07/12 01:37:51;;;;;;;1.55;1.42;;;;;;;;;;5045026;28;20262;-81
2023/07/12 01:40:17;;;;;;;1.70;1.55;;;;;;;;;;5050239;28;20034;-81
2023/07/12 01:42:44;;;;;;;1.83;1.38;;;;;;;;;;5056798;28;20029;-81
2023/07/12 01:45:10;;;;;;;1.95;1.48;;;;;;;;;;5047838;28;20048;-81
2023/07/12 01:47:36;;;;;;;1.88;1.42;;;;;;;;;;5052439;28;20028;-80
2023/07/12 01:50:02;;;;;;;2.00;1.55;;;;;;;;;;5057437;28;20025;-81
2023/07/12 01:52:28;;;;;;;1.38;1.27;;;;;;;;;;5055468;28;20033;-81
2023/07/12 01:54:54;;;;;;;1.55;1.42;;;;;;;;;;5047356;28;20033;-80
2023/07/12 01:57:20;;;;;;;2.42;1.45;;;;;;;;;;5057689;28;20025;-80
2023/07/12 01:59:46;;;;;;;2.03;1.60;;;;;;;;;;5045366;28;20036;-81
2023/07/12 02:02:12;;;;;;;2.25;1.75;;;;;;;;;;5061491;28;20040;-81
2023/07/12 02:04:38;;;;;;;1.92;1.33;;;;;;;;;;5048651;28;20021;-81
2023/07/12 02:07:04;;;;;;;1.33;1.23;;;;;;;;;;5044540;28;20051;-81
2023/07/12 02:09:35;;;;;;;1.65;1.30;;;;;;;;;;5061315;28;20264;-81
2023/07/12 02:12:02;;;;;;;2.15;1.35;;;;;;;;;;5049955;28;20664;-81
2023/07/12 02:14:27;;;;;;;2.15;1.50;;;;;;;;;;5047300;28;20082;-82
2023/07/12 02:16:53;;;;;;;2.17;1.60;;;;;;;;;;5045496;28;20025;-81
2023/07/12 02:19:20;;;;;;;2.03;1.70;;;;;;;;;;5051760;28;20024;-81
2023/07/12 02:21:46;;;;;;;1.92;1.27;;;;;;;;;;5048832;28;20059;-81
2023/07/12 02:24:12;;;;;;;2.65;1.80;;;;;;;;;;5062541;28;20723;-80
2023/07/12 02:26:39;;;;;;;2.95;1.90;;;;;;;;;;5046955;28;20469;-81
2023/07/12 02:29:05;;;;;;;2.25;1.75;;;;;;;;;;5037943;28;20041;-81
2023/07/12 02:31:32;;;;;;;1.73;1.35;;;;;;;;;;5047068;28;20031;-80
2023/07/12 02:33:58;;;;;;;2.22;1.58;;;;;;;;;;5044319;28;20039;-81
2023/07/12 02:36:24;;;;;;;2.03;1.58;;;;;;;;;;5050178;28;20471;-81
2023/07/12 02:38:50;;;;;;;2.47;1.52;;;;;;;;;;5051782;28;20464;-80
2023/07/12 02:41:17;;;;;;;1.65;1.25;;;;;;;;;;5048106;28;20025;-80
2023/07/12 02:43:43;;;;;;;6.15;2.60;;;;;;;;;;5065047;28;20036;-80
2023/07/12 02:46:09;;;;;;;2.25;1.48;;;;;;;;;;5044978;28;20040;-81
2023/07/12 02:48:35;;;;;;;1.63;1.27;;;;;;;;;;5051681;28;20408;-81
2023/07/12 02:51:01;;;;;;;1.65;1.33;;;;;;;;;;5041865;28;20122;-80
2023/07/12 02:53:28;;;;;;;3.22;1.70;;;;;;;;;;5044938;28;20427;-80
2023/07/12 02:55:55;;;;;;;2.42;1.65;;;;;;;;;;5051819;28;20070;-82
2023/07/12 02:58:21;;;;;;;3.03;2.05;;;;;;;;;;5054742;28;20044;-81
2023/07/12 03:00:47;;;;;;;3.75;1.88;;;;;;;;;;5059825;28;20035;-81
2023/07/12 03:03:13;;;;;;;2.80;1.80;;;;;;;;;;5047418;28;20032;-81
2023/07/12 03:05:40;;;;;;;3.03;1.70;;;;;;;;;;5056030;28;20028;-80
2023/07/12 03:08:06;;;;;;;2.80;1.65;;;;;;;;;;5046176;28;20127;-81
2023/07/12 03:10:32;;;;;;;2.20;1.50;;;;;;;;;;5047896;28;20021;-81
2023/07/12 03:12:58;;;;;;;1.90;1.60;;;;;;;;;;5046935;28;20382;-81
2023/07/12 03:15:24;;;;;;;5.90;2.00;;;;;;;;;;5048679;28;20029;-80
2023/07/12 03:17:50;;;;;;;4.78;1.70;;;;;;;;;;5054143;28;20036;-80
2023/07/12 03:20:16;;;;;;;1.95;1.63;;;;;;;;;;5048523;28;20044;-81
2023/07/12 03:22:42;;;;;;;2.10;1.60;;;;;;;;;;5064185;28;20028;-80
2023/07/12 03:25:08;;;;;;;1.83;1.20;;;;;;;;;;5042167;28;20035;-80
2023/07/12 03:27:34;;;;;;;1.88;1.55;;;;;;;;;;5049308;28;20037;-80
2023/07/12 03:30:00;;;;;;;2.90;1.75;;;;;;;;;;5031468;28;20120;-82
2023/07/12 03:32:26;;;;;;;1.33;1.23;;;;;;;;;;5052226;28;20028;-81
2023/07/12 03:34:52;;;;;;;1.90;1.50;;;;;;;;;;5054850;28;20387;-81
2023/07/12 03:37:18;;;;;;;3.13;1.90;;;;;;;;;;5052915;28;20071;-80
2023/07/12 03:39:44;;;;;;;1.60;1.50;;;;;;;;;;5047910;28;20025;-80
2023/07/12 03:42:10;;;;;;;1.95;1.60;;;;;;;;;;5053643;28;20049;-81
2023/07/12 03:44:36;;;;;;;2.63;1.55;;;;;;;;;;5055404;28;20029;-81
2023/07/12 03:47:02;;;;;;;1.95;1.50;;;;;;;;;;5046584;28;20102;-81
2023/07/12 03:49:29;;;;;;;3.50;1.80;;;;;;;;;;5061314;28;20037;-80
2023/07/12 03:51:55;;;;;;;1.90;1.58;;;;;;;;;;5051197;28;20503;-80
2023/07/12 03:54:21;;;;;;;3.10;2.03;;;;;;;;;;5059947;28;20021;-80
2023/07/12 03:56:47;;;;;;;2.70;1.42;;;;;;;;;;5051420;28;20028;-80
2023/07/12 03:59:13;;;;;;;3.15;2.00;;;;;;;;;;5054015;28;20111;-81
2023/07/12 04:01:39;;;;;;;4.43;2.10;;;;;;;;;;5048030;28;20036;-80
2023/07/12 04:04:06;;;;;;;3.83;2.05;;;;;;;;;;5046350;28;20059;-81
2023/07/12 04:06:32;;;;;;;2.20;1.55;;;;;;;;;;5052862;28;20040;-80
2023/07/12 04:08:59;;;;;;;2.78;1.90;;;;;;;;;;5044782;28;20033;-80
2023/07/12 04:11:26;;;;;;;3.63;2.10;;;;;;;;;;5059778;28;20025;-80
2023/07/12 04:13:53;;;;;;;4.15;2.42;;;;;;;;;;5058885;28;20528;-81
2023/07/12 04:16:19;;;;;;;2.17;1.67;;;;;;;;;;5048458;28;20029;-81
2023/07/12 04:18:45;;;;;;;2.40;1.80;;;;;;;;;;5054100;28;20041;-81
2023/07/12 04:21:11;;;;;;;2.38;1.70;;;;;;;;;;5060478;28;20045;-80
2023/07/12 04:23:37;;;;;;;3.33;2.00;;;;;;;;;;5051415;28;20499;-80
2023/07/12 04:26:06;;;;;;;2.30;1.70;;;;;;;;;;5057620;28;20033;-80
2023/07/12 04:28:34;;;;;;;1.52;1.40;;;;;;;;;;5052707;28;20045;-80
2023/07/12 04:31:06;;;;;;;2.63;1.85;;;;;;;;;;5047858;28;20377;-80
2023/07/12 04:33:32;;;;;;;2.03;1.70;;;;;;;;;;5048052;28;20052;-80
2023/07/12 04:35:58;;;;;;;2.92;2.15;;;;;;;;;;5051702;28;20060;-82
2023/07/12 04:38:24;;;;;;;5.70;1.80;;;;;;;;;;5057465;28;20020;-81
2023/07/12 04:40:54;;;;;;;2.40;1.95;;;;;;;;;;5045817;28;20110;-80
2023/07/12 04:43:20;;;;;;;2.95;2.20;;;;;;;;;;5042911;28;20056;-81
2023/07/12 04:45:46;;;;;;;3.25;2.42;;;;;;;;;;5041569;28;20549;-81
2023/07/12 04:48:12;;;;;;;1.90;1.33;;;;;;;;;;5066452;28;20043;-81
2023/07/12 04:50:38;;;;;;;2.83;1.80;;;;;;;;;;5041505;28;20029;-80
2023/07/12 04:53:04;;;;;;;7.97;3.30;;;;;;;;;;5059293;28;20455;-81
2023/07/12 04:55:31;;;;;;;4.57;2.67;;;;;;;;;;5052109;28;20021;-81
2023/07/12 04:57:57;;;;;;;2.85;2.30;;;;;;;;;;5058028;28;20033;-81
2023/07/12 05:00:23;;;;;;;2.85;1.80;;;;;;;;;;5060356;28;20472;-81
2023/07/12 05:02:50;;;;;;;2.88;2.08;;;;;;;;;;5039467;28;20074;-80
2023/07/12 05:05:16;;;;;;;2.97;1.98;;;;;;;;;;5048120;28;20035;-81
2023/07/12 05:07:42;;;;;;;3.83;2.60;;;;;;;;;;5049844;28;20423;-81
2023/07/12 05:10:08;;;;;;;3.17;1.80;;;;;;;;;;5047863;28;20033;-81
2023/07/12 05:12:38;;;;;;;5.35;1.92;;;;;;;;;;5052705;28;20017;-84
2023/07/12 05:15:05;;;;;;;1.92;1.70;;;;;;;;;;5048431;28;20633;-78
2023/07/12 05:17:31;;;;;;;2.13;1.80;;;;;;;;;;5046912;28;20021;-82
2023/07/12 05:20:00;;;;;;;5.22;2.65;;;;;;;;;;5059388;28;20039;-80
2023/07/12 05:22:26;;;;;;;7.75;2.88;;;;;;;;;;5039687;28;20116;-80
2023/07/12 05:24:52;;;;;;;3.72;2.40;;;;;;;;;;5055836;28;20040;-78
2023/07/12 05:27:18;;;;;;;3.47;2.45;;;;;;;;;;5052825;28;20072;-80
2023/07/12 05:29:44;;;;;;;3.75;2.55;;;;;;;;;;5034213;28;20032;-82
2023/07/12 05:32:10;;;;;;;3.22;2.00;;;;;;;;;;5031027;28;20025;-79
2023/07/12 05:34:37;;;;;;;3.45;2.63;;;;;;;;;;5042987;28;20036;-81
2023/07/12 05:37:04;;;;;;;5.63;3.08;;;;;;;;;;5038605;28;20045;-76
2023/07/12 05:39:30;;;;;;;4.25;2.60;;;;;;;;;;5051579;28;20101;-84
2023/07/12 05:41:56;;;;;;;4.85;2.40;;;;;;;;;;5055149;28;20028;-81
2023/07/12 05:44:22;;;;;;;2.78;1.95;;;;;;;;;;5052537;28;20024;-81
2023/07/12 05:46:48;;;;;;;3.17;2.20;;;;;;;;;;5050387;28;20075;-81
2023/07/12 05:49:14;;;;;;;4.20;2.53;;;;;;;;;;5031544;28;20021;-82
2023/07/12 05:51:44;;;;;;;2.85;1.90;;;;;;;;;;5042998;28;20523;-82
2023/07/12 05:54:10;;;;;;;4.10;2.70;;;;;;;;;;5031217;28;20033;-83
2023/07/12 05:56:36;;;;;;;3.78;2.88;;;;;;;;;;5039858;28;20044;-83
2023/07/12 05:59:02;;;;;;;2.85;2.20;;;;;;;;;;5049512;28;20051;-81
2023/07/12 06:01:28;;;;;;;4.38;2.58;;;;;;;;;;5052777;28;20356;-83
2023/07/12 06:03:54;;;;;;;3.53;2.47;;;;;;;;;;5053175;28;20039;-82
2023/07/12 06:06:20;;;;;;;5.65;2.90;;;;;;;;;;5048125;28;20460;-82
2023/07/12 06:08:46;;;;;;;4.38;2.50;;;;;;;;;;5050953;28;20068;-82
2023/07/12 06:11:12;;;;;;;4.65;2.70;;;;;;;;;;5044760;28;20108;-82
2023/07/12 06:16:33;;;;;;;7.45;3.38;;;;;;;;;;5046827;28;20025;-83
2023/07/12 06:18:58;;;;;;;4.05;2.70;;;;;;;;;;5049901;28;20047;-83
2023/07/12 06:21:25;;;;;;;5.10;3.30;;;;;;;;;;5059641;28;20049;-82
2023/07/12 06:23:51;;;;;;;4.30;2.75;;;;;;;;;;5049840;28;20036;-83
2023/07/12 06:26:17;;;;;;;4.93;3.08;;;;;;;;;;5049644;28;20033;-82
2023/07/12 06:28:43;;;;;;;3.83;2.90;;;;;;;;;;5048918;28;20455;-83
2023/07/12 06:31:09;;;;;;;5.63;2.65;;;;;;;;;;5050803;28;20095;-82
2023/07/12 06:33:35;;;;;;;3.70;2.30;;;;;;;;;;5063151;28;20024;-82
2023/07/12 06:36:01;;;;;;;5.60;2.92;;;;;;;;;;5036916;28;20029;-81
2023/07/12 06:38:27;;;;;;;3.55;2.53;;;;;;;;;;5044990;28;20112;-81
2023/07/12 06:40:54;;;;;;;3.42;2.70;;;;;;;;;;5029558;28;20167;-82
2023/07/12 06:43:20;;;;;;;5.82;3.40;;;;;;;;;;5046291;28;20116;-80
2023/07/12 06:45:46;;;;;;;5.32;3.03;;;;;;;;;;5048766;28;20088;-81
2023/07/12 06:48:12;;;;;;;4.47;3.05;;;;;;;;;;5037576;28;20102;-80
2023/07/12 06:50:39;;;;;;;4.25;2.67;;;;;;;;;;5029565;28;20151;-82
2023/07/12 06:53:05;;;;;;;5.10;3.00;;;;;;;;;;5029503;28;20112;-81
2023/07/12 06:55:31;;;;;;;4.95;3.08;;;;;;;;;;5029397;28;20022;-80
2023/07/12 06:57:57;;;;;;;4.30;3.10;;;;;;;;;;5048607;28;20187;-81
2023/07/12 07:00:23;;;;;;;5.25;3.40;;;;;;;;;;5047804;28;20384;-81
2023/07/12 07:02:49;;;;;;;3.88;2.28;;;;;;;;;;5038487;28;20134;-80
2023/07/12 07:05:15;;;;;;;5.15;2.72;;;;;;;;;;5029111;28;20520;-80
2023/07/12 07:07:41;;;;;;;4.20;2.42;;;;;;;;;;5034990;28;20021;-80
2023/07/12 07:10:07;;;;;;;3.67;2.50;;;;;;;;;;5032083;28;20021;-81
2023/07/12 07:12:33;;;;;;;5.85;3.30;;;;;;;;;;5044920;28;20078;-80
2023/07/12 07:14:59;;;;;;;4.00;2.60;;;;;;;;;;5032639;28;20029;-81
2023/07/12 07:17:25;;;;;;;2.95;2.33;;;;;;;;;;5045934;28;20430;-80
2023/07/12 07:19:51;;;;;;;6.35;3.65;;;;;;;;;;5045281;28;20020;-78
2023/07/12 07:22:17;;;;;;;4.88;2.67;;;;;;;;;;5038655;28;20083;-79
2023/07/12 07:24:44;;;;;;;5.40;3.08;;;;;;;;;;5045969;28;20433;-79
2023/07/12 07:27:10;;;;;;;4.22;2.78;;;;;;;;;;5048318;28;20025;-79
2023/07/12 07:29:36;;;;;;;3.63;2.50;;;;;;;;;;5065147;28;20025;-83
2023/07/12 07:32:02;;;;;;;4.93;2.67;;;;;;;;;;5047296;28;20048;-84
2023/07/12 07:34:28;;;;;;;3.42;2.78;;;;;;;;;;5039118;28;20026;-81
2023/07/12 07:36:54;;;;;;;2.88;2.53;;;;;;;;;;5046215;28;20036;-79
2023/07/12 07:39:20;;;;;;;4.50;2.83;;;;;;;;;;5036409;28;20407;-82
2023/07/12 07:41:46;;;;;;;4.88;3.25;;;;;;;;;;5048468;28;20040;-80
2023/07/12 07:44:12;;;;;;;5.30;2.70;;;;;;;;;;5044358;28;20030;-82
2023/07/12 07:46:38;;;;;;;4.50;2.75;;;;;;;;;;5043459;28;20029;-83
2023/07/12 07:49:03;;;;;;;3.53;2.45;;;;;;;;;;5044964;28;20033;-83
2023/07/12 07:51:29;;;;;;;4.13;3.03;;;;;;;;;;5052360;28;20018;-82
2023/07/12 07:53:55;;;;;;;4.18;2.88;;;;;;;;;;5029164;28;20025;-81
2023/07/12 07:56:21;;;;;;;4.50;2.67;;;;;;;;;;5028665;28;20030;-82
2023/07/12 07:58:47;;;;;;;5.00;2.83;;;;;;;;;;5042217;28;20740;-79
2023/07/12 08:01:13;;;;;;;5.47;3.10;;;;;;;;;;5045936;28;20025;-81
2023/07/12 08:03:39;;;;;;;3.53;2.60;;;;;;;;;;5043703;28;20468;-79
2023/07/12 08:06:06;;;;;;;3.90;2.70;;;;;;;;;;5037807;28;20076;-78
2023/07/12 08:08:33;;;;;;;5.47;3.35;;;;;;;;;;5048047;28;20120;-76
2023/07/12 08:10:59;;;;;;;4.78;3.00;;;;;;;;;;5048690;28;20013;-80
2023/07/12 08:13:25;;;;;;;6.18;2.55;;;;;;;;;;5043649;28;20115;-81
2023/07/12 08:15:51;;;;;;;4.20;2.72;;;;;;;;;;5048463;28;20041;-80
2023/07/12 08:18:17;;;;;;;4.60;2.63;;;;;;;;;;5029897;28;20392;-81
2023/07/12 08:20:43;;;;;;;5.15;2.72;;;;;;;;;;5044298;28;20068;-82
2023/07/12 08:23:09;;;;;;;5.45;2.70;;;;;;;;;;5046965;28;20064;-82
2023/07/12 08:25:35;;;;;;;5.60;2.80;;;;;;;;;;5047757;28;20033;-83
2023/07/12 08:28:01;;;;;;;4.05;2.50;;;;;;;;;;5049313;28;20066;-82
2023/07/12 08:30:27;;;;;;;3.22;2.38;;;;;;;;;;5037226;28;20021;-82
2023/07/12 08:32:53;;;;;;;3.40;2.40;;;;;;;;;;5042820;28;20028;-82
2023/07/12 08:35:19;;;;;;;3.55;2.30;;;;;;;;;;5048220;28;20025;-82
2023/07/12 08:37:45;;;;;;;4.55;2.40;;;;;;;;;;5042553;28;20025;-83
2023/07/12 08:40:15;;;;;;;2.85;2.00;;;;;;;;;;5026560;28;20034;-81
2023/07/12 08:42:41;;;;;;;4.28;2.75;;;;;;;;;;5034265;28;20052;-83
2023/07/12 08:45:31;;;;;;;3.53;2.58;;;;;;;;;;5045354;28;20490;-83
2023/07/12 08:47:58;;;;;;;5.68;3.15;;;;;;;;;;5035662;28;20075;-83
2023/07/12 08:50:25;;;;;;;4.97;2.63;;;;;;;;;;5047805;28;20021;-85
2023/07/12 08:52:51;;;;;;;4.78;2.95;;;;;;;;;;5048863;28;20017;-84
2023/07/12 08:55:19;;;;;;;4.05;2.63;;;;;;;;;;5051447;28;20021;-84
2023/07/12 08:57:51;;;;;;;5.50;2.58;;;;;;;;;;5049747;28;21630;-84
2023/07/12 09:00:22;;;;;;;3.15;2.38;;;;;;;;;;5049094;28;20041;-80
2023/07/12 09:02:48;;;;;;;2.92;2.33;;;;;;;;;;5045963;28;20037;-78
2023/07/12 09:05:19;;;;;;;5.35;2.95;;;;;;;;;;5047657;28;20041;-78
2023/07/12 09:07:51;;;;;;;5.50;2.63;;;;;;;;;;5046406;28;20043;-86
2023/07/12 09:10:33;;;;;;;4.25;2.40;;;;;;;;;;5049819;28;20040;-86
2023/07/12 09:12:59;;;;;;;2.90;1.92;;;;;;;;;;5056487;28;20048;-85
2023/07/12 09:15:31;;;;;;;2.88;2.05;;;;;;;;;;5052712;28;20033;-87
2023/07/12 09:17:57;;;;;;;3.38;2.00;;;;;;;;;;5050436;28;20116;-88
2023/07/12 09:20:24;;;;;;;7.13;2.50;;;;;;;;;;5050199;28;20037;-87
2023/07/12 09:22:50;;;;;;;3.38;2.38;;;;;;;;;;5055445;28;20024;-84
2023/07/12 09:25:21;;;;;;;5.40;2.45;;;;;;;;;;5053059;28;20162;-84
2023/07/12 09:27:49;;;;;;;7.43;2.60;;;;;;;;;;5045053;28;20120;-86
2023/07/12 09:30:21;;;;;;;7.85;2.75;;;;;;;;;;5049508;28;20025;-81
2023/07/12 09:32:50;;;;;;;2.70;1.80;;;;;;;;;;5047721;28;20122;-86
2023/07/12 09:35:29;;;;;;;3.88;2.30;;;;;;;;;;5051582;28;20024;-88
2023/07/12 09:38:04;;;;;;;2.97;1.90;;;;;;;;;;5048140;28;20021;-80
2023/07/12 09:40:36;;;;;;;2.88;1.98;;;;;;;;;;5052557;28;20044;-81
2023/07/12 09:43:03;;;;;;;3.08;1.90;;;;;;;;;;5046391;28;20115;-82
2023/07/12 09:45:33;;;;;;;3.20;1.95;;;;;;;;;;5055530;28;20441;-82
2023/07/12 09:48:18;;;;;;;4.60;1.85;;;;;;;;;;5057669;28;20033;-82
2023/07/12 09:50:48;;;;;;;6.10;2.75;;;;;;;;;;5056783;28;20033;-82
2023/07/12 09:53:24;;;;;;;5.30;2.78;;;;;;;;;;5051858;28;20024;-81
2023/07/12 09:55:51;;;;;;;4.18;2.55;;;;;;;;;;5051605;28;20052;-82
2023/07/12 09:58:40;;;;;;;2.60;2.05;;;;;;;;;;5045056;28;20075;-81
2023/07/12 10:01:25;;;;;;;4.10;2.40;;;;;;;;;;5063316;28;20089;-81
2023/07/12 10:03:57;;;;;;;2.92;1.80;;;;;;;;;;5058642;28;20047;-81
2023/07/12 10:06:31;;;;;;;5.20;2.90;;;;;;;;;;5055948;28;20036;-81
2023/07/12 10:09:15;;;;;;;3.22;2.30;;;;;;;;;;5056634;28;20070;-81
2023/07/12 10:11:50;;;;;;;3.00;2.10;;;;;;;;;;5061518;28;20124;-81
2023/07/12 10:14:18;;;;;;;2.85;1.77;;;;;;;;;;5062209;28;20033;-80
2023/07/12 10:16:47;;;;;;;5.03;2.70;;;;;;;;;;5047790;28;20590;-81
2023/07/12 10:19:20;;;;;;;3.83;2.38;;;;;;;;;;5055097;28;20075;-81
2023/07/12 10:21:46;;;;;;;3.47;1.92;;;;;;;;;;5058081;28;20100;-82
2023/07/12 10:24:16;;;;;;;3.63;1.77;;;;;;;;;;5054517;28;20044;-81
2023/07/12 10:26:44;;;;;;;4.13;2.05;;;;;;;;;;5056162;28;20032;-82
2023/07/12 10:29:19;;;;;;;3.33;1.88;;;;;;;;;;5063946;28;20025;-81
2023/07/12 10:31:55;;;;;;;2.60;1.77;;;;;;;;;;5067687;28;20041;-81
2023/07/12 10:34:41;;;;;;;5.40;1.90;;;;;;;;;;5051700;28;20025;-81
2023/07/12 10:37:24;;;;;;;2.72;1.83;;;;;;;;;;5052752;28;20052;-80
2023/07/12 10:39:50;;;;;;;3.72;2.00;;;;;;;;;;5069695;28;20109;-80
2023/07/12 10:42:19;;;;;;;3.35;1.95;;;;;;;;;;5055114;28;20387;-81
2023/07/12 10:44:50;;;;;;;1.75;1.40;;;;;;;;;;5070133;28;20081;-81
2023/07/12 10:47:19;;;;;;;2.22;1.48;;;;;;;;;;5060337;28;20509;-80
2023/07/12 10:49:54;;;;;;;3.13;1.98;;;;;;;;;;5063563;28;20036;-81
2023/07/12 10:52:27;;;;;;;4.82;2.40;;;;;;;;;;5054276;28;20021;-81
2023/07/12 10:55:15;;;;;;;2.92;1.77;;;;;;;;;;5051636;28;20048;-80
2023/07/12 10:58:06;;;;;;;3.33;2.03;;;;;;;;;;5048186;28;20351;-80
2023/07/12 11:00:48;;;;;;;1.98;1.42;;;;;;;;;;5039575;28;20061;-80
2023/07/12 11:03:33;;;;;;;4.03;1.85;;;;;;;;;;5052000;28;20024;-81
2023/07/12 11:06:06;;;;;;;3.85;2.10;;;;;;;;;;5055429;28;20119;-80
2023/07/12 11:08:32;;;;;;;3.08;1.83;;;;;;;;;;5052060;28;20025;-82
2023/07/12 11:11:21;;;;;;;2.08;1.40;;;;;;;;;;5056822;28;20075;-82
2023/07/12 11:13:52;;;;;;;2.53;1.67;;;;;;;;;;5047775;28;20353;-81
2023/07/12 11:16:19;;;;;;;3.42;2.25;;;;;;;;;;5057224;28;20023;-79
2023/07/12 11:19:04;;;;;;;2.88;1.80;;;;;;;;;;5054574;28;20024;-81
2023/07/12 11:21:42;;;;;;;2.95;1.67;;;;;;;;;;5056739;28;20491;-82
2023/07/12 11:24:29;;;;;;;2.63;1.35;;;;;;;;;;5053245;28;20111;-81
2023/07/12 11:26:57;;;;;;;2.70;1.70;;;;;;;;;;5058184;28;20029;-80
2023/07/12 11:29:23;;;;;;;2.08;1.52;;;;;;;;;;5057486;28;20028;-81
2023/07/12 11:31:50;;;;;;;3.00;1.70;;;;;;;;;;5056967;28;20111;-81
2023/07/12 11:34:19;;;;;;;2.70;1.45;;;;;;;;;;5052891;28;20028;-81
2023/07/12 11:36:50;;;;;;;3.53;1.70;;;;;;;;;;5065287;28;20035;-81
2023/07/12 11:39:21;;;;;;;1.77;1.15;;;;;;;;;;5048102;28;20464;-80
2023/07/12 11:41:58;;;;;;;2.60;1.50;;;;;;;;;;5050050;28;20120;-82
2023/07/12 11:44:27;;;;;;;1.70;1.08;;;;;;;;;;5051628;28;20021;-81
2023/07/12 11:46:53;;;;;;;1.60;1.38;;;;;;;;;;5062621;28;20483;-80
2023/07/12 11:49:21;;;;;;;2.38;1.35;;;;;;;;;;5043322;28;20041;-81
2023/07/12 11:51:49;;;;;;;1.90;1.40;;;;;;;;;;5048748;28;20029;-81
2023/07/12 11:54:17;;;;;;;2.88;1.35;;;;;;;;;;5061148;28;20108;-81
2023/07/12 11:56:44;;;;;;;3.05;1.77;;;;;;;;;;5060049;28;20103;-81
2023/07/12 11:59:14;;;;;;;3.58;1.45;;;;;;;;;;5050024;28;20029;-81
2023/07/12 12:01:40;;;;;;;4.53;2.15;;;;;;;;;;5048893;28;20484;-81
2023/07/12 12:04:06;;;;;;;1.40;1.30;;;;;;;;;;5044555;28;20029;-76
2023/07/12 12:06:32;;;;;;;1.83;1.50;;;;;;;;;;5063018;28;20037;-76
2023/07/12 12:08:58;;;;;;;2.33;1.48;;;;;;;;;;5066209;28;20032;-76
2023/07/12 12:11:27;;;;;;;2.03;1.58;;;;;;;;;;5057816;28;20684;-79
2023/07/12 12:13:53;;;;;;;2.67;1.70;;;;;;;;;;5036494;28;20449;-81
2023/07/12 12:16:21;;;;;;;1.88;1.33;;;;;;;;;;5047741;28;20090;-78
2023/07/12 12:18:52;;;;;;;3.80;1.42;;;;;;;;;;5045980;28;20021;-77
2023/07/12 12:21:18;;;;;;;;;;;;;;;;;;5051289;28;20050;-78
2023/07/12 12:23:50;;;;;;;1.42;1.17;;;;;;;;;;5049371;28;20636;-78
2023/07/12 12:26:31;;;;;;;3.28;1.45;;;;;;;;;;5045084;28;20032;-82
2023/07/12 12:28:59;;;;;;;2.60;1.20;;;;;;;;;;5052621;28;20067;-79
2023/07/12 12:31:26;;;;;;;1.85;1.00;;;;;;;;;;5044135;28;20140;-82
2023/07/12 12:33:59;;;;;;;3.90;1.42;;;;;;;;;;5057572;28;20071;-82
2023/07/12 12:36:27;;;;;;;1.60;1.23;;;;;;;;;;5054594;28;20109;-83
2023/07/12 12:39:03;;;;;;;1.00;0.88;;;;;;;;;;5052596;28;20048;-84
2023/07/12 12:41:34;;;;;;;1.40;1.15;;;;;;;;;;5053098;28;20530;-84
2023/07/12 12:44:06;;;;;;;1.80;1.00;;;;;;;;;;5049379;28;20028;-83
2023/07/12 12:46:32;;;;;;;2.00;0.93;;;;;;;;;;5057482;28;20036;-83
2023/07/12 12:48:58;;;;;;;1.67;0.85;;;;;;;;;;5054454;28;20125;-83
2023/07/12 12:51:25;;;;;;;1.00;0.70;;;;;;;;;;5060154;28;20470;-84
2023/07/12 12:53:51;;;;;;;1.75;1.13;;;;;;;;;;5053015;28;20119;-84
2023/07/12 12:56:17;;;;;;;1.73;1.30;;;;;;;;;;5064273;28;20550;-84
2023/07/12 12:58:44;;;;;;;0.90;0.90;;;;;;;;;;5050831;28;20455;-85
2023/07/12 13:01:14;;;;;;;0.80;0.80;;;;;;;;;;5052748;28;20119;-83
2023/07/12 13:03:40;;;;;;;1.20;1.10;;;;;;;;;;5058767;28;20102;-83
2023/07/12 13:06:07;;;;;;;1.02;0.93;;;;;;;;;;5066064;28;20036;-83
2023/07/12 13:08:33;;;;;;;1.10;0.73;;;;;;;;;;5040490;28;20028;-82
2023/07/12 13:10:59;;;;;;;1.45;1.30;;;;;;;;;;5059129;28;20044;-84
2023/07/12 13:13:25;;;;;;;1.08;0.90;;;;;;;;;;5062299;28;20026;-84
2023/07/12 13:15:51;;;;;;;1.30;0.73;;;;;;;;;;5056189;28;20024;-84
2023/07/12 13:18:17;;;;;;;1.25;0.90;;;;;;;;;;5055563;28;20033;-84
2023/07/12 13:20:43;;;;;;;0.90;0.90;;;;;;;;;;5059148;28;20079;-84
2023/07/12 13:23:09;;;;;;;1.48;0.90;;;;;;;;;;5061940;28;20060;-83
2023/07/12 13:25:38;;;;;;;1.02;0.60;;;;;;;;;;5062834;28;20385;-83
2023/07/12 13:28:06;;;;;;;0.95;0.88;;;;;;;;;;5044882;28;20037;-82
2023/07/12 13:30:37;;;;;;;0.88;0.77;;;;;;;;;;5053746;28;20052;-83
2023/07/12 13:33:09;;;;;;;0.70;0.70;;;;;;;;;;5056756;28;20480;-83
2023/07/12 13:35:35;;;;;;;0.90;0.90;;;;;;;;;;5052727;28;20111;-83
2023/07/12 13:38:01;;;;;;;0.73;0.70;;;;;;;;;;5047770;28;20037;-83
2023/07/12 13:40:27;;;;;;;1.20;0.73;;;;;;;;;;5063319;28;20658;-83
2023/07/12 13:42:55;;;;;;;1.00;0.88;;;;;;;;;;5049519;28;20033;-85
2023/07/12 13:45:21;;;;;;;0.82;0.80;;;;;;;;;;5062237;28;20116;-83
2023/07/12 13:47:47;;;;;;;0.80;0.80;;;;;;;;;;5048204;28;20037;-76
2023/07/12 13:50:14;;;;;;;1.35;0.82;;;;;;;;;;5048468;28;20037;-77
2023/07/12 13:52:40;;;;;;;1.15;0.70;;;;;;;;;;5054626;28;20035;-81
2023/07/12 13:55:07;;;;;;;2.70;0.80;;;;;;;;;;5053066;28;20045;-81
2023/07/12 13:57:34;;;;;;;3.35;1.02;;;;;;;;;;5053366;28;20036;-79
2023/07/12 14:00:00;;;;;;;2.17;0.88;;;;;;;;;;5053795;28;20100;-79
2023/07/12 14:02:30;;;;;;;1.75;0.70;;;;;;;;;;5058549;28;20032;-81
2023/07/12 14:04:57;;;;;;;0.52;0.52;;;;;;;;;;5057368;28;20047;-79
2023/07/12 14:07:30;;;;;;;0.60;0.60;;;;;;;;;;5048959;28;20017;-80
2023/07/12 14:09:56;;;;;;;0.50;0.47;;;;;;;;;;5052479;28;20559;-78
2023/07/12 14:12:23;;;;;;;0.43;0.40;;;;;;;;;;5059198;28;20108;-78
2023/07/12 14:14:49;;;;;;;0.63;0.60;;;;;;;;;;5049730;28;20890;-78
2023/07/12 14:17:18;;;;;;;1.17;0.50;;;;;;;;;;5056360;28;20051;-76
2023/07/12 14:19:46;;;;;;;0.68;0.57;;;;;;;;;;5052301;28;20086;-78
2023/07/12 14:22:13;;;;;;;0.50;0.50;;;;;;;;;;5048487;28;20033;-76
2023/07/12 14:24:39;;;;;;;0.65;0.65;;;;;;;;;;5044582;28;20589;-77
2023/07/12 14:27:05;;;;;;;0.45;0.45;;;;;;;;;;5052843;28;20040;-77
2023/07/12 14:29:31;;;;;;;3.80;0.40;;;;;;;;;;5055161;28;20037;-81
2023/07/12 14:31:57;;;;;;;0.40;0.40;;;;;;;;;;5058193;28;20055;-78
2023/07/12 14:34:23;;;;;;;0.40;0.40;;;;;;;;;;5055738;28;20029;-79
2023/07/12 14:36:49;;;;;;;0.50;0.50;;;;;;;;;;5056010;28;20086;-75
2023/07/12 14:39:15;;;;;;;2.10;0.40;;;;;;;;;;5053424;28;20036;-78
2023/07/12 14:41:42;;;;;;;1.40;0.70;;;;;;;;;;5060594;28;20029;-80
2023/07/12 14:44:13;;;;;;;0.40;0.40;;;;;;;;;;5052643;28;20033;-79
2023/07/12 14:46:39;;;;;;;1.05;0.52;;;;;;;;;;5052419;28;20032;-77
2023/07/12 14:49:05;;;;;;;0.40;0.40;;;;;;;;;;5044391;28;20041;-79
2023/07/12 14:51:31;;;;;;;0.40;0.30;;;;;;;;;;5044659;28;20090;-82